createdAt,value
2019-01-02T00:00:55.689Z,1.17
2019-01-02T00:01:55.657Z,1.17
2019-01-02T00:02:55.649Z,1.13
2019-01-02T00:03:55.641Z,1.14
2019-01-02T00:04:55.649Z,1.16
2019-01-02T00:05:55.644Z,1.17
2019-01-02T00:06:55.605Z,1.17
2019-01-02T00:07:55.601Z,1.14
2019-01-02T00:08:55.579Z,1.17
2019-01-02T00:09:55.569Z,1.13
2019-01-02T00:10:55.587Z,1.20
2019-01-02T00:11:55.548Z,1.20
2019-01-02T00:12:55.535Z,1.13
2019-01-02T00:13:55.575Z,1.25
2019-01-02T00:14:55.525Z,1.24
2019-01-02T00:15:55.543Z,1.25
2019-01-02T00:16:55.527Z,1.25
2019-01-02T00:17:55.507Z,1.42
2019-01-02T00:18:55.463Z,1.52
2019-01-02T00:19:55.509Z,1.47
2019-01-02T00:20:55.441Z,1.44
2019-01-02T00:21:56.729Z,1.46
2019-01-02T00:22:55.442Z,1.43
2019-01-02T00:23:55.407Z,1.50
2019-01-02T00:24:55.406Z,1.46
2019-01-02T00:25:55.442Z,1.54
2019-01-02T00:26:55.392Z,1.53
2019-01-02T00:27:55.373Z,1.56
2019-01-02T00:28:55.405Z,1.50
2019-01-02T00:29:55.347Z,1.67
2019-01-02T00:30:55.338Z,1.63
2019-01-02T00:31:55.334Z,1.64
2019-01-02T00:32:55.309Z,1.72
2019-01-02T00:33:55.296Z,1.74
2019-01-02T00:34:55.309Z,1.77
2019-01-02T00:35:55.271Z,1.89
2019-01-02T00:36:55.296Z,1.93
2019-01-02T00:37:55.264Z,1.90
2019-01-02T00:38:55.252Z,2.07
2019-01-02T00:39:55.229Z,2.05
2019-01-02T00:40:55.226Z,2.11
2019-01-02T00:41:55.231Z,2.12
2019-01-02T00:42:55.203Z,2.05
2019-01-02T00:43:55.184Z,2.09
2019-01-02T00:44:55.178Z,2.02
2019-01-02T00:45:55.168Z,2.09
2019-01-02T00:46:55.216Z,2.07
2019-01-02T00:47:55.149Z,2.07
2019-01-02T00:48:55.133Z,2.05
2019-01-02T00:49:55.118Z,2.02
2019-01-02T00:50:55.106Z,2.05
2019-01-02T00:51:55.107Z,2.00
2019-01-02T00:52:55.149Z,2.02
2019-01-02T00:53:55.074Z,2.07
2019-01-02T00:54:55.063Z,2.00
2019-01-02T00:55:55.053Z,1.92
2019-01-02T00:56:55.061Z,2.02
2019-01-02T00:57:55.035Z,2.05
2019-01-02T00:58:55.020Z,2.19
2019-01-02T00:59:55.010Z,2.20
2019-01-02T01:00:55.005Z,2.15
2019-01-02T01:01:55.004Z,2.23
2019-01-02T01:02:54.989Z,2.27
2019-01-02T01:03:54.960Z,2.20
2019-01-02T01:04:54.961Z,2.27
2019-01-02T01:05:54.953Z,2.26
2019-01-02T01:06:54.949Z,2.12
2019-01-02T01:07:54.913Z,2.11
2019-01-02T01:08:54.917Z,2.19
2019-01-02T01:09:54.912Z,2.19
2019-01-02T01:10:54.891Z,2.22
2019-01-02T01:11:54.878Z,2.23
2019-01-02T01:12:54.872Z,2.25
2019-01-02T01:13:54.854Z,2.27
2019-01-02T01:14:54.836Z,2.22
2019-01-02T01:15:54.830Z,2.22
2019-01-02T01:16:54.822Z,2.20
2019-01-02T01:17:54.806Z,2.23
2019-01-02T01:18:54.788Z,2.33
2019-01-02T01:19:54.774Z,2.36
2019-01-02T01:20:54.769Z,2.38
2019-01-02T01:21:54.762Z,2.32
2019-01-02T01:22:54.768Z,2.23
2019-01-02T01:23:54.737Z,2.33
2019-01-02T01:24:54.728Z,2.33
2019-01-02T01:25:54.706Z,2.26
2019-01-02T01:26:54.713Z,2.43
2019-01-02T01:27:54.687Z,2.32
2019-01-02T01:28:54.686Z,2.30
2019-01-02T01:29:54.660Z,2.23
2019-01-02T01:30:54.659Z,2.36
2019-01-02T01:31:54.659Z,2.26
2019-01-02T01:32:54.628Z,2.32
2019-01-02T01:33:54.619Z,2.33
2019-01-02T01:34:55.613Z,2.48
2019-01-02T01:35:54.836Z,2.37
2019-01-02T01:36:54.601Z,2.43
2019-01-02T01:37:54.599Z,2.43
2019-01-02T01:38:54.565Z,2.45
2019-01-02T01:39:54.559Z,2.36
2019-01-02T01:40:54.541Z,2.41
2019-01-02T01:41:54.547Z,2.45
2019-01-02T01:42:54.534Z,2.44
2019-01-02T01:43:54.517Z,2.44
2019-01-02T01:44:54.493Z,2.40
2019-01-02T01:45:54.513Z,2.45
2019-01-02T01:46:54.484Z,2.33
2019-01-02T01:47:54.461Z,2.37
2019-01-02T01:48:54.456Z,2.33
2019-01-02T01:49:54.445Z,2.43
2019-01-02T01:50:54.436Z,2.51
2019-01-02T01:51:54.454Z,2.48
2019-01-02T01:52:54.409Z,2.44
2019-01-02T01:53:54.403Z,2.45
2019-01-02T01:54:54.398Z,2.50
2019-01-02T01:55:54.396Z,2.53
2019-01-02T01:56:54.373Z,2.48
2019-01-02T01:57:54.418Z,2.48
2019-01-02T01:58:54.430Z,2.55
2019-01-02T01:59:54.344Z,2.61
2019-01-02T02:00:54.348Z,2.59
2019-01-02T02:01:54.324Z,2.61
2019-01-02T02:02:54.309Z,2.62
2019-01-02T02:03:54.286Z,2.61
2019-01-02T02:04:54.319Z,2.63
2019-01-02T02:05:54.269Z,2.55
2019-01-02T02:06:54.259Z,2.62
2019-01-02T02:07:54.258Z,2.63
2019-01-02T02:08:54.227Z,2.62
2019-01-02T02:09:54.222Z,2.63
2019-01-02T02:10:54.250Z,2.58
2019-01-02T02:11:54.220Z,2.62
2019-01-02T02:12:54.188Z,2.62
2019-01-02T02:13:54.171Z,2.74
2019-01-02T02:14:54.153Z,2.63
2019-01-02T02:15:54.152Z,2.69
2019-01-02T02:16:54.149Z,2.71
2019-01-02T02:17:54.168Z,2.66
2019-01-02T02:18:54.138Z,2.66
2019-01-02T02:19:54.110Z,2.63
2019-01-02T02:20:54.085Z,2.63
2019-01-02T02:21:54.113Z,2.65
2019-01-02T02:22:54.087Z,2.53
2019-01-02T02:23:54.065Z,2.50
2019-01-02T02:24:54.067Z,2.50
2019-01-02T02:25:54.053Z,2.47
2019-01-02T02:26:54.050Z,2.53
2019-01-02T02:27:54.026Z,2.45
2019-01-02T02:28:53.998Z,2.43
2019-01-02T02:29:54.000Z,2.38
2019-01-02T02:30:53.984Z,2.41
2019-01-02T02:31:53.995Z,2.40
2019-01-02T02:32:53.973Z,2.41
2019-01-02T02:33:53.955Z,2.38
2019-01-02T02:34:53.936Z,2.30
2019-01-02T02:35:53.933Z,2.41
2019-01-02T02:36:53.914Z,2.41
2019-01-02T02:37:53.908Z,2.44
2019-01-02T02:38:53.936Z,2.33
2019-01-02T02:39:53.880Z,2.44
2019-01-02T02:40:53.864Z,2.41
2019-01-02T02:41:53.867Z,2.45
2019-01-02T02:42:53.855Z,2.43
2019-01-02T02:43:53.850Z,2.44
2019-01-02T02:44:53.833Z,2.48
2019-01-02T02:45:53.892Z,2.41
2019-01-02T02:46:53.825Z,2.47
2019-01-02T02:47:53.795Z,2.48
2019-01-02T02:48:53.771Z,2.51
2019-01-02T02:49:53.766Z,2.53
2019-01-02T02:50:53.766Z,2.55
2019-01-02T02:51:53.743Z,2.50
2019-01-02T02:52:53.745Z,2.48
2019-01-02T02:53:53.718Z,2.50
2019-01-02T02:54:53.728Z,2.58
2019-01-02T02:55:53.692Z,2.56
2019-01-02T02:56:53.740Z,2.62
2019-01-02T02:57:53.694Z,2.73
2019-01-02T02:58:53.658Z,2.69
2019-01-02T02:59:53.649Z,2.69
2019-01-02T03:00:53.633Z,2.77
2019-01-02T03:01:53.635Z,2.77
2019-01-02T03:02:53.632Z,2.79
2019-01-02T03:03:53.607Z,2.77
2019-01-02T03:04:53.594Z,2.69
2019-01-02T03:05:53.589Z,2.71
2019-01-02T03:06:55.400Z,2.65
2019-01-02T03:07:53.588Z,2.73
2019-01-02T03:08:53.564Z,2.73
2019-01-02T03:09:53.538Z,2.65
2019-01-02T03:10:53.519Z,2.77
2019-01-02T03:11:53.546Z,2.73
2019-01-02T03:12:53.514Z,2.80
2019-01-02T03:13:53.495Z,2.89
2019-01-02T03:14:53.523Z,2.81
2019-01-02T03:15:53.463Z,2.80
2019-01-02T03:16:53.501Z,2.77
2019-01-02T03:17:53.464Z,2.65
2019-01-02T03:18:53.432Z,2.71
2019-01-02T03:19:53.416Z,2.77
2019-01-02T03:20:53.416Z,2.74
2019-01-02T03:21:53.426Z,2.79
2019-01-02T03:22:53.405Z,2.71
2019-01-02T03:23:53.385Z,2.71
2019-01-02T03:24:53.366Z,2.77
2019-01-02T03:25:53.358Z,2.73
2019-01-02T03:26:53.345Z,2.76
2019-01-02T03:27:53.344Z,2.73
2019-01-02T03:28:53.316Z,2.76
2019-01-02T03:29:53.369Z,2.76
2019-01-02T03:30:53.311Z,2.74
2019-01-02T03:31:53.292Z,2.73
2019-01-02T03:32:53.282Z,2.68
2019-01-02T03:33:53.277Z,2.73
2019-01-02T03:34:53.249Z,2.74
2019-01-02T03:35:53.795Z,2.69
2019-01-02T03:36:53.226Z,2.56
2019-01-02T03:37:53.235Z,2.62
2019-01-02T03:38:53.201Z,2.62
2019-01-02T03:39:53.206Z,2.51
2019-01-02T03:40:53.180Z,2.56
2019-01-02T03:41:53.167Z,2.51
2019-01-02T03:42:53.167Z,2.53
2019-01-02T03:43:53.221Z,2.48
2019-01-02T03:44:53.139Z,2.47
2019-01-02T03:45:53.121Z,2.44
2019-01-02T03:46:53.122Z,2.40
2019-01-02T03:47:53.117Z,2.36
2019-01-02T03:48:53.093Z,2.43
2019-01-02T03:49:53.091Z,2.45
2019-01-02T03:50:53.068Z,2.38
2019-01-02T03:51:53.066Z,2.41
2019-01-02T03:52:53.066Z,2.56
2019-01-02T03:53:53.034Z,2.59
2019-01-02T03:54:53.019Z,2.63
2019-01-02T03:55:53.018Z,2.68
2019-01-02T03:56:53.000Z,2.68
2019-01-02T03:57:53.019Z,2.65
2019-01-02T03:58:52.980Z,2.66
2019-01-02T03:59:53.024Z,2.79
2019-01-02T04:00:52.981Z,2.74
2019-01-02T04:01:52.945Z,2.84
2019-01-02T04:02:52.943Z,2.76
2019-01-02T04:03:52.947Z,2.76
2019-01-02T04:04:52.915Z,2.84
2019-01-02T04:05:52.899Z,2.73
2019-01-02T04:06:52.893Z,2.76
2019-01-02T04:07:52.889Z,2.77
2019-01-02T04:08:52.877Z,2.84
2019-01-02T04:09:52.849Z,2.81
2019-01-02T04:10:52.839Z,2.86
2019-01-02T04:11:52.825Z,2.76
2019-01-02T04:12:52.842Z,2.80
2019-01-02T04:13:52.815Z,2.73
2019-01-02T04:14:52.873Z,2.89
2019-01-02T04:15:52.782Z,2.86
2019-01-02T04:16:52.767Z,2.90
2019-01-02T04:17:52.777Z,2.92
2019-01-02T04:18:52.756Z,2.95
2019-01-02T04:19:52.769Z,2.95
2019-01-02T04:20:52.727Z,2.89
2019-01-02T04:21:52.707Z,2.95
2019-01-02T04:22:52.724Z,2.97
2019-01-02T04:23:52.717Z,2.92
2019-01-02T04:24:52.683Z,2.98
2019-01-02T04:25:52.675Z,2.98
2019-01-02T04:26:52.655Z,2.95
2019-01-02T04:27:52.677Z,3.01
2019-01-02T04:28:52.638Z,2.99
2019-01-02T04:29:52.646Z,2.92
2019-01-02T04:30:52.631Z,2.97
2019-01-02T04:31:52.612Z,2.97
2019-01-02T04:32:52.590Z,2.97
2019-01-02T04:33:52.597Z,2.98
2019-01-02T04:34:52.569Z,2.98
2019-01-02T04:35:52.568Z,2.90
2019-01-02T04:36:52.595Z,2.95
2019-01-02T04:37:52.556Z,2.89
2019-01-02T04:38:52.540Z,2.87
2019-01-02T04:39:52.512Z,2.98
2019-01-02T04:40:52.505Z,2.98
2019-01-02T04:41:52.552Z,2.98
2019-01-02T04:42:52.478Z,2.95
2019-01-02T04:43:52.481Z,2.95
2019-01-02T04:44:52.482Z,2.87
2019-01-02T04:45:52.503Z,2.92
2019-01-02T04:46:52.432Z,2.86
2019-01-02T04:47:52.431Z,2.90
2019-01-02T04:48:52.421Z,2.92
2019-01-02T04:49:52.396Z,2.94
2019-01-02T04:50:52.379Z,2.94
2019-01-02T04:51:52.428Z,2.83
2019-01-02T04:52:52.359Z,2.90
2019-01-02T04:53:52.363Z,2.95
2019-01-02T04:54:52.346Z,2.90
2019-01-02T04:55:52.337Z,2.92
2019-01-02T04:56:52.327Z,2.80
2019-01-02T04:57:52.304Z,2.89
2019-01-02T04:58:52.308Z,2.94
2019-01-02T04:59:52.311Z,2.81
2019-01-02T05:00:52.273Z,2.83
2019-01-02T05:01:52.260Z,2.94
2019-01-02T05:02:52.249Z,2.87
2019-01-02T05:03:52.247Z,2.94
2019-01-02T05:04:52.242Z,2.89
2019-01-02T05:05:52.224Z,2.89
2019-01-02T05:06:52.210Z,2.89
2019-01-02T05:07:52.201Z,2.90
2019-01-02T05:08:52.220Z,2.87
2019-01-02T05:09:52.174Z,2.87
2019-01-02T05:10:52.171Z,2.87
2019-01-02T05:11:52.152Z,2.86
2019-01-02T05:12:52.139Z,2.76
2019-01-02T05:13:52.159Z,2.90
2019-01-02T05:14:52.177Z,2.77
2019-01-02T05:15:52.104Z,2.73
2019-01-02T05:16:52.099Z,2.81
2019-01-02T05:17:52.082Z,2.77
2019-01-02T05:18:52.097Z,2.66
2019-01-02T05:19:52.057Z,2.68
2019-01-02T05:20:52.093Z,2.69
2019-01-02T05:21:52.049Z,2.71
2019-01-02T05:22:52.019Z,2.73
2019-01-02T05:23:52.034Z,2.66
2019-01-02T05:24:52.003Z,2.74
2019-01-02T05:25:52.004Z,2.65
2019-01-02T05:26:51.990Z,2.69
2019-01-02T05:27:51.976Z,2.65
2019-01-02T05:28:51.964Z,2.63
2019-01-02T05:29:51.990Z,2.59
2019-01-02T05:30:51.932Z,2.56
2019-01-02T05:31:51.950Z,2.48
2019-01-02T05:32:51.910Z,2.50
2019-01-02T05:33:51.915Z,2.44
2019-01-02T05:34:51.894Z,2.44
2019-01-02T05:35:51.877Z,2.47
2019-01-02T05:36:51.873Z,2.41
2019-01-02T05:37:51.880Z,2.47
2019-01-02T05:38:51.853Z,2.38
2019-01-02T05:39:51.825Z,2.36
2019-01-02T05:40:51.818Z,2.38
2019-01-02T05:41:51.804Z,2.33
2019-01-02T05:42:51.798Z,2.33
2019-01-02T05:43:51.793Z,2.23
2019-01-02T05:44:51.781Z,2.25
2019-01-02T05:45:51.763Z,2.38
2019-01-02T05:46:51.746Z,2.33
2019-01-02T05:47:51.788Z,2.33
2019-01-02T05:48:51.734Z,2.30
2019-01-02T05:49:51.717Z,2.32
2019-01-02T05:50:51.703Z,2.36
2019-01-02T05:51:51.714Z,2.32
2019-01-02T05:52:51.677Z,2.37
2019-01-02T05:53:51.672Z,2.37
2019-01-02T05:54:51.656Z,2.26
2019-01-02T05:55:51.652Z,2.38
2019-01-02T05:56:51.663Z,2.30
2019-01-02T05:57:51.634Z,2.38
2019-01-02T05:58:51.627Z,2.27
2019-01-02T05:59:51.604Z,2.36
2019-01-02T06:00:51.596Z,2.37
2019-01-02T06:01:51.590Z,2.26
2019-01-02T06:02:51.564Z,2.33
2019-01-02T06:03:51.621Z,2.23
2019-01-02T06:04:51.546Z,2.23
2019-01-02T06:05:51.534Z,2.23
2019-01-02T06:06:51.519Z,2.33
2019-01-02T06:07:51.513Z,2.23
2019-01-02T06:08:51.516Z,2.26
2019-01-02T06:09:51.491Z,2.20
2019-01-02T06:10:51.495Z,2.18
2019-01-02T06:11:51.471Z,2.15
2019-01-02T06:12:51.446Z,2.22
2019-01-02T06:13:51.492Z,2.22
2019-01-02T06:14:51.427Z,2.20
2019-01-02T06:15:51.414Z,2.23
2019-01-02T06:16:51.412Z,2.14
2019-01-02T06:17:51.393Z,2.11
2019-01-02T06:18:51.397Z,2.11
2019-01-02T06:19:51.372Z,2.08
2019-01-02T06:20:51.435Z,2.08
2019-01-02T06:21:51.352Z,2.08
2019-01-02T06:22:51.347Z,2.02
2019-01-02T06:23:51.346Z,2.09
2019-01-02T06:24:51.327Z,2.07
2019-01-02T06:25:51.310Z,2.05
2019-01-02T06:26:51.288Z,2.05
2019-01-02T06:27:51.282Z,2.02
2019-01-02T06:28:51.280Z,2.01
2019-01-02T06:29:51.255Z,2.04
2019-01-02T06:30:51.242Z,2.05
2019-01-02T06:31:51.230Z,2.00
2019-01-02T06:32:51.247Z,2.05
2019-01-02T06:33:51.249Z,2.05
2019-01-02T06:34:51.213Z,2.09
2019-01-02T06:35:51.189Z,2.12
2019-01-02T06:36:51.180Z,2.19
2019-01-02T06:37:51.199Z,2.23
2019-01-02T06:38:51.160Z,2.19
2019-01-02T06:39:51.153Z,2.15
2019-01-02T06:40:51.131Z,2.25
2019-01-02T06:41:51.122Z,2.14
2019-01-02T06:42:51.178Z,2.15
2019-01-02T06:43:51.107Z,2.15
2019-01-02T06:44:51.106Z,2.20
2019-01-02T06:45:51.093Z,2.25
2019-01-02T06:46:51.066Z,2.14
2019-01-02T06:47:51.047Z,2.08
2019-01-02T06:48:51.041Z,2.02
2019-01-02T06:49:51.079Z,2.11
2019-01-02T06:50:51.028Z,2.09
2019-01-02T06:51:51.006Z,2.11
2019-01-02T06:52:51.005Z,2.04
2019-01-02T06:53:50.989Z,2.05
2019-01-02T06:54:50.980Z,1.95
2019-01-02T06:55:50.984Z,1.92
2019-01-02T06:56:50.968Z,1.92
2019-01-02T06:57:50.961Z,1.88
2019-01-02T06:58:50.954Z,1.93
2019-01-02T06:59:50.951Z,1.95
2019-01-02T07:00:50.905Z,2.04
2019-01-02T07:01:50.907Z,2.08
2019-01-02T07:02:50.886Z,2.11
2019-01-02T07:03:50.916Z,2.07
2019-01-02T07:04:50.880Z,2.09
2019-01-02T07:05:50.855Z,1.98
2019-01-02T07:06:50.838Z,1.95
2019-01-02T07:07:50.833Z,1.90
2019-01-02T07:08:50.823Z,1.90
2019-01-02T07:09:50.820Z,1.95
2019-01-02T07:10:50.789Z,1.95
2019-01-02T07:11:50.836Z,2.09
2019-01-02T07:12:50.773Z,2.00
2019-01-02T07:13:50.755Z,2.08
2019-01-02T07:14:50.786Z,2.01
2019-01-02T07:15:50.733Z,1.95
2019-01-02T07:16:50.725Z,1.92
2019-01-02T07:17:50.712Z,1.98
2019-01-02T07:18:50.712Z,2.09
2019-01-02T07:19:50.697Z,2.11
2019-01-02T07:20:50.685Z,2.05
2019-01-02T07:21:50.662Z,2.11
2019-01-02T07:22:50.649Z,2.08
2019-01-02T07:23:50.691Z,2.04
2019-01-02T07:24:50.647Z,2.08
2019-01-02T07:25:50.623Z,1.98
2019-01-02T07:26:50.605Z,1.88
2019-01-02T07:27:50.595Z,1.85
2019-01-02T07:28:50.597Z,1.74
2019-01-02T07:29:50.588Z,1.82
2019-01-02T07:30:50.565Z,1.81
2019-01-02T07:31:50.552Z,1.74
2019-01-02T07:32:50.539Z,1.82
2019-01-02T07:33:50.542Z,1.81
2019-01-02T07:34:50.547Z,1.83
2019-01-02T07:35:50.511Z,1.81
2019-01-02T07:36:50.539Z,1.89
2019-01-02T07:37:50.500Z,1.88
2019-01-02T07:38:50.503Z,1.95
2019-01-02T07:39:50.547Z,2.07
2019-01-02T07:40:50.451Z,2.02
2019-01-02T07:41:50.438Z,2.08
2019-01-02T07:42:50.448Z,2.04
2019-01-02T07:43:50.425Z,2.05
2019-01-02T07:44:50.549Z,1.98
2019-01-02T07:45:50.391Z,2.00
2019-01-02T07:46:50.384Z,1.98
2019-01-02T07:47:50.377Z,2.08
2019-01-02T07:48:50.358Z,2.05
2019-01-02T07:49:50.363Z,2.19
2019-01-02T07:50:50.394Z,2.27
2019-01-02T07:51:50.330Z,2.26
2019-01-02T07:52:50.319Z,2.15
2019-01-02T07:53:50.327Z,2.22
2019-01-02T07:54:50.303Z,2.22
2019-01-02T07:55:50.280Z,2.37
2019-01-02T07:56:50.269Z,2.29
2019-01-02T07:57:50.259Z,2.37
2019-01-02T07:58:50.262Z,2.22
2019-01-02T07:59:50.266Z,2.25
2019-01-02T08:00:50.223Z,2.26
2019-01-02T08:01:50.212Z,2.30
2019-01-02T08:02:50.220Z,2.22
2019-01-02T08:03:50.218Z,2.33
2019-01-02T08:04:50.205Z,2.29
2019-01-02T08:05:50.165Z,2.20
2019-01-02T08:06:50.155Z,2.36
2019-01-02T08:07:50.151Z,2.36
2019-01-02T08:08:50.147Z,2.38
2019-01-02T08:09:50.169Z,2.37
2019-01-02T08:10:50.110Z,2.45
2019-01-02T08:11:50.097Z,2.41
2019-01-02T08:12:50.116Z,2.44
2019-01-02T08:13:50.086Z,2.45
2019-01-02T08:14:50.073Z,2.44
2019-01-02T08:15:50.071Z,2.37
2019-01-02T08:16:50.048Z,2.40
2019-01-02T08:17:50.100Z,2.26
2019-01-02T08:18:50.021Z,2.23
2019-01-02T08:19:50.023Z,2.25
2019-01-02T08:20:49.994Z,2.27
2019-01-02T08:21:49.994Z,2.25
2019-01-02T08:22:49.978Z,2.09
2019-01-02T08:23:49.969Z,2.25
2019-01-02T08:24:49.990Z,2.18
2019-01-02T08:25:49.995Z,2.15
2019-01-02T08:26:49.934Z,2.20
2019-01-02T08:27:49.928Z,2.09
2019-01-02T08:28:49.923Z,2.04
2019-01-02T08:29:49.910Z,1.95
2019-01-02T08:30:49.886Z,2.04
2019-01-02T08:31:49.872Z,1.95
2019-01-02T08:32:49.930Z,1.92
2019-01-02T08:33:49.859Z,2.01
2019-01-02T08:34:49.866Z,1.93
2019-01-02T08:35:49.844Z,2.00
2019-01-02T08:36:50.501Z,1.92
2019-01-02T08:37:49.802Z,1.98
2019-01-02T08:38:49.797Z,1.93
2019-01-02T08:39:49.799Z,1.93
2019-01-02T08:40:49.773Z,1.98
2019-01-02T08:41:49.764Z,1.93
2019-01-02T08:42:49.796Z,1.90
2019-01-02T08:43:49.750Z,1.92
2019-01-02T08:44:49.730Z,1.98
2019-01-02T08:45:49.738Z,1.95
2019-01-02T08:46:49.716Z,1.86
2019-01-02T08:47:49.695Z,1.95
2019-01-02T08:48:49.684Z,1.90
2019-01-02T08:49:49.674Z,1.88
2019-01-02T08:50:49.690Z,1.89
2019-01-02T08:51:49.650Z,1.92
2019-01-02T08:52:49.633Z,1.98
2019-01-02T08:53:49.643Z,2.05
2019-01-02T08:54:49.623Z,2.02
2019-01-02T08:55:49.622Z,2.09
2019-01-02T08:56:49.585Z,2.05
2019-01-02T08:57:49.586Z,2.15
2019-01-02T08:58:49.562Z,2.27
2019-01-02T08:59:49.562Z,2.29
2019-01-02T09:00:49.552Z,2.37
2019-01-02T09:01:49.587Z,2.45
2019-01-02T09:02:49.525Z,2.40
2019-01-02T09:03:49.515Z,2.43
2019-01-02T09:04:49.497Z,2.45
2019-01-02T09:05:49.558Z,2.51
2019-01-02T09:06:49.505Z,2.65
2019-01-02T09:07:49.477Z,2.68
2019-01-02T09:08:49.490Z,2.56
2019-01-02T09:09:49.464Z,2.56
2019-01-02T09:10:49.473Z,2.63
2019-01-02T09:11:49.439Z,2.65
2019-01-02T09:12:49.408Z,2.66
2019-01-02T09:13:49.454Z,2.62
2019-01-02T09:14:49.382Z,2.53
2019-01-02T09:15:49.380Z,2.58
2019-01-02T09:16:49.370Z,2.56
2019-01-02T09:17:49.351Z,2.58
2019-01-02T09:18:49.395Z,2.50
2019-01-02T09:19:49.330Z,2.62
2019-01-02T09:20:49.382Z,2.58
2019-01-02T09:21:49.308Z,2.59
2019-01-02T09:22:49.296Z,2.73
2019-01-02T09:23:49.287Z,2.68
2019-01-02T09:24:49.280Z,2.76
2019-01-02T09:25:49.276Z,2.68
2019-01-02T09:26:49.259Z,2.65
2019-01-02T09:27:49.240Z,2.69
2019-01-02T09:28:49.223Z,2.69
2019-01-02T09:29:49.227Z,2.66
2019-01-02T09:30:49.214Z,2.71
2019-01-02T09:31:49.187Z,2.77
2019-01-02T09:32:49.175Z,2.73
2019-01-02T09:33:52.302Z,2.76
2019-01-02T09:34:49.173Z,2.74
2019-01-02T09:35:50.804Z,2.77
2019-01-02T09:36:49.136Z,2.74
2019-01-02T09:37:49.118Z,2.69
2019-01-02T09:38:49.121Z,2.74
2019-01-02T09:39:49.098Z,2.63
2019-01-02T09:40:49.097Z,2.68
2019-01-02T09:41:49.118Z,2.73
2019-01-02T09:42:49.128Z,2.68
2019-01-02T09:43:49.058Z,2.73
2019-01-02T09:44:49.049Z,2.66
2019-01-02T09:45:49.048Z,2.71
2019-01-02T09:46:49.099Z,2.77
2019-01-02T09:47:49.014Z,2.81
2019-01-02T09:48:49.004Z,2.94
2019-01-02T09:49:49.001Z,2.92
2019-01-02T09:50:48.992Z,2.99
2019-01-02T09:51:48.972Z,3.05
2019-01-02T09:52:48.974Z,3.15
2019-01-02T09:53:48.942Z,3.15
2019-01-02T09:54:48.939Z,3.28
2019-01-02T09:55:48.986Z,3.35
2019-01-02T09:56:48.913Z,3.33
2019-01-02T09:57:48.910Z,3.26
2019-01-02T09:58:48.909Z,3.17
2019-01-02T09:59:48.885Z,3.10
2019-01-02T10:00:48.995Z,3.10
2019-01-02T10:01:48.850Z,3.07
2019-01-02T10:02:48.844Z,2.98
2019-01-02T10:03:48.841Z,2.95
2019-01-02T10:04:48.830Z,2.98
2019-01-02T10:05:48.810Z,2.86
2019-01-02T10:06:48.792Z,3.04
2019-01-02T10:07:48.999Z,2.94
2019-01-02T10:08:48.777Z,2.80
2019-01-02T10:09:48.762Z,2.87
2019-01-02T10:10:48.850Z,2.83
2019-01-02T10:11:48.739Z,2.98
2019-01-02T10:12:48.813Z,2.89
2019-01-02T10:13:48.712Z,2.83
2019-01-02T10:14:48.706Z,2.92
2019-01-02T10:15:48.727Z,2.81
2019-01-02T10:16:48.679Z,2.97
2019-01-02T10:17:48.665Z,2.87
2019-01-02T10:18:48.706Z,2.86
2019-01-02T10:19:48.643Z,2.94
2019-01-02T10:20:48.642Z,2.86
2019-01-02T10:21:48.625Z,3.01
2019-01-02T10:22:48.609Z,2.94
2019-01-02T10:23:48.638Z,2.94
2019-01-02T10:24:48.593Z,2.92
2019-01-02T10:25:48.590Z,2.90
2019-01-02T10:26:48.563Z,2.90
2019-01-02T10:27:48.554Z,2.92
2019-01-02T10:28:48.548Z,2.97
2019-01-02T10:29:48.553Z,3.04
2019-01-02T10:30:48.593Z,3.08
2019-01-02T10:31:48.504Z,3.13
2019-01-02T10:32:48.495Z,3.15
2019-01-02T10:33:48.486Z,3.12
2019-01-02T10:34:48.471Z,3.12
2019-01-02T10:35:48.527Z,3.26
2019-01-02T10:36:48.450Z,3.34
2019-01-02T10:37:48.440Z,3.33
2019-01-02T10:38:48.487Z,3.33
2019-01-02T10:39:48.416Z,3.37
2019-01-02T10:40:48.449Z,3.34
2019-01-02T10:41:48.395Z,3.37
2019-01-02T10:42:48.392Z,3.33
2019-01-02T10:43:48.416Z,3.30
2019-01-02T10:44:48.363Z,3.39
2019-01-02T10:45:48.363Z,3.46
2019-01-02T10:46:48.365Z,3.33
2019-01-02T10:47:48.325Z,3.31
2019-01-02T10:48:48.315Z,3.23
2019-01-02T10:49:48.313Z,3.34
2019-01-02T10:50:48.346Z,3.35
2019-01-02T10:51:48.280Z,3.35
2019-01-02T10:52:48.302Z,3.33
2019-01-02T10:53:48.255Z,3.35
2019-01-02T10:54:48.247Z,3.49
2019-01-02T10:55:48.256Z,3.50
2019-01-02T10:56:48.234Z,3.49
2019-01-02T10:57:48.224Z,3.37
2019-01-02T10:58:48.208Z,3.49
2019-01-02T10:59:48.207Z,3.39
2019-01-02T11:00:48.176Z,3.37
2019-01-02T11:01:48.191Z,3.33
2019-01-02T11:02:48.155Z,3.37
2019-01-02T11:03:48.144Z,3.33
2019-01-02T11:04:48.131Z,3.39
2019-01-02T11:05:48.123Z,3.50
2019-01-02T11:06:48.139Z,3.42
2019-01-02T11:07:48.203Z,3.41
2019-01-02T11:08:48.099Z,3.44
2019-01-02T11:09:48.097Z,3.41
2019-01-02T11:10:48.081Z,3.41
2019-01-02T11:11:48.106Z,3.35
2019-01-02T11:12:48.038Z,3.28
2019-01-02T11:13:48.060Z,3.22
2019-01-02T11:14:48.021Z,3.25
2019-01-02T11:15:48.008Z,3.30
2019-01-02T11:16:48.045Z,3.34
2019-01-02T11:17:47.989Z,3.35
2019-01-02T11:18:47.971Z,3.37
2019-01-02T11:19:47.963Z,3.34
2019-01-02T11:20:47.962Z,3.39
2019-01-02T11:21:47.964Z,3.28
2019-01-02T11:22:47.959Z,3.35
2019-01-02T11:23:47.913Z,3.45
2019-01-02T11:24:47.904Z,3.41
2019-01-02T11:25:47.895Z,3.30
2019-01-02T11:26:47.893Z,3.33
2019-01-02T11:27:47.867Z,3.35
2019-01-02T11:28:47.915Z,3.31
2019-01-02T11:29:47.850Z,3.39
2019-01-02T11:30:47.840Z,3.33
2019-01-02T11:31:47.837Z,3.22
2019-01-02T11:32:47.820Z,3.19
2019-01-02T11:33:47.802Z,3.13
2019-01-02T11:34:47.799Z,3.13
2019-01-02T11:35:47.817Z,3.07
2019-01-02T11:36:47.781Z,3.02
2019-01-02T11:37:47.764Z,3.10
2019-01-02T11:38:47.757Z,2.98
2019-01-02T11:39:47.749Z,2.97
2019-01-02T11:40:47.725Z,2.99
2019-01-02T11:41:47.719Z,2.99
2019-01-02T11:42:47.703Z,2.99
2019-01-02T11:43:47.685Z,2.89
2019-01-02T11:44:47.678Z,2.98
2019-01-02T11:45:47.695Z,2.97
2019-01-02T11:46:47.663Z,2.90
2019-01-02T11:47:47.645Z,2.94
2019-01-02T11:48:47.630Z,2.98
2019-01-02T11:49:47.624Z,2.87
2019-01-02T11:50:47.619Z,3.05
2019-01-02T11:51:47.642Z,2.92
2019-01-02T11:52:47.588Z,2.94
2019-01-02T11:53:47.586Z,2.99
2019-01-02T11:54:47.566Z,2.92
2019-01-02T11:55:47.550Z,2.95
2019-01-02T11:56:47.559Z,2.94
2019-01-02T11:57:47.575Z,3.07
2019-01-02T11:58:49.986Z,2.98
2019-01-02T11:59:47.536Z,2.98
2019-01-02T12:00:47.495Z,2.99
2019-01-02T12:01:47.528Z,3.02
2019-01-02T12:02:47.485Z,3.02
2019-01-02T12:03:47.507Z,2.99
2019-01-02T12:04:47.453Z,2.95
2019-01-02T12:05:47.443Z,3.05
2019-01-02T12:06:47.446Z,3.12
2019-01-02T12:07:47.438Z,2.99
2019-01-02T12:08:47.408Z,2.98
2019-01-02T12:09:47.418Z,2.99
2019-01-02T12:10:47.387Z,3.08
2019-01-02T12:11:47.387Z,3.08
2019-01-02T12:12:47.366Z,3.15
2019-01-02T12:13:47.353Z,3.16
2019-01-02T12:14:47.337Z,3.12
2019-01-02T12:15:47.355Z,2.98
2019-01-02T12:16:47.321Z,2.87
2019-01-02T12:17:47.308Z,2.99
2019-01-02T12:18:47.302Z,2.90
2019-01-02T12:19:47.278Z,2.95
2019-01-02T12:20:47.268Z,2.80
2019-01-02T12:21:47.293Z,2.80
2019-01-02T12:22:47.256Z,2.90
2019-01-02T12:23:47.247Z,2.86
2019-01-02T12:24:47.226Z,2.84
2019-01-02T12:25:47.214Z,2.90
2019-01-02T12:26:47.213Z,2.90
2019-01-02T12:27:47.241Z,2.89
2019-01-02T12:28:47.174Z,2.86
2019-01-02T12:29:47.186Z,2.80
2019-01-02T12:30:47.191Z,2.84
2019-01-02T12:31:47.178Z,2.86
2019-01-02T12:32:47.130Z,2.81
2019-01-02T12:33:47.124Z,2.89
2019-01-02T12:34:47.114Z,2.92
2019-01-02T12:35:47.150Z,2.74
2019-01-02T12:36:47.095Z,2.77
2019-01-02T12:37:47.075Z,2.74
2019-01-02T12:38:47.076Z,2.69
2019-01-02T12:39:47.102Z,2.63
2019-01-02T12:40:47.052Z,2.68
2019-01-02T12:41:47.072Z,2.71
2019-01-02T12:42:47.018Z,2.74
2019-01-02T12:43:47.027Z,2.84
2019-01-02T12:44:47.015Z,2.90
2019-01-02T12:45:46.989Z,2.74
2019-01-02T12:46:46.992Z,2.76
2019-01-02T12:47:47.016Z,2.77
2019-01-02T12:48:46.955Z,2.79
2019-01-02T12:49:46.942Z,2.80
2019-01-02T12:50:46.934Z,2.76
2019-01-02T12:51:46.932Z,2.77
2019-01-02T12:52:46.911Z,2.74
2019-01-02T12:53:46.921Z,2.80
2019-01-02T12:54:46.879Z,2.83
2019-01-02T12:55:46.872Z,2.80
2019-01-02T12:56:46.904Z,2.76
2019-01-02T12:57:46.845Z,2.71
2019-01-02T12:58:46.838Z,2.77
2019-01-02T12:59:46.843Z,2.71
2019-01-02T13:00:46.815Z,2.62
2019-01-02T13:01:46.809Z,2.69
2019-01-02T13:02:46.803Z,2.69
2019-01-02T13:03:46.787Z,2.66
2019-01-02T13:04:46.770Z,2.71
2019-01-02T13:05:46.762Z,2.68
2019-01-02T13:06:46.778Z,2.69
2019-01-02T13:07:46.756Z,2.71
2019-01-02T13:08:46.726Z,2.65
2019-01-02T13:09:46.714Z,2.66
2019-01-02T13:10:46.699Z,2.73
2019-01-02T13:11:46.686Z,2.73
2019-01-02T13:12:46.704Z,2.81
2019-01-02T13:13:46.671Z,2.74
2019-01-02T13:14:46.661Z,2.79
2019-01-02T13:15:46.643Z,2.79
2019-01-02T13:16:46.633Z,2.77
2019-01-02T13:17:46.632Z,2.74
2019-01-02T13:18:46.606Z,2.73